Time;durP1;ratioP1;P1;durP2;ratioP2;P2;SDS_P1;SDS_P2;PMS_P1;PMS_P2;Temp;Humidity;BMP_temperature;BMP_pressure;BME280_temperature;BME280_humidity;BME280_pressure;Samples;Min_cycle;Max_cycle;Signal;HPM_P1;HPM_P2
2022/11/09 05:02:40;;;;;;;1.27;1.10;;;13.80;99.90;;;;;;6093004;23;20511;-68
2022/11/09 05:05:07;;;;;;;2.80;0.70;;;13.80;99.90;;;;;;6098326;23;20437;-66
2022/11/09 05:07:34;;;;;;;0.60;0.60;;;13.80;99.90;;;;;;6098021;23;20427;-66
2022/11/09 05:10:01;;;;;;;0.53;0.53;;;13.70;99.90;;;;;;6097497;23;20488;-66
2022/11/09 05:12:27;;;;;;;0.73;0.73;;;13.70;99.90;;;;;;6072001;23;20451;-67
2022/11/09 05:14:54;;;;;;;1.27;1.27;;;13.70;99.90;;;;;;6072164;23;20436;-69
2022/11/09 05:17:21;;;;;;;0.67;0.67;;;13.70;99.90;;;;;;6073072;23;20436;-66
2022/11/09 05:19:48;;;;;;;0.50;0.50;;;13.70;99.90;;;;;;6072525;23;20500;-66
2022/11/09 05:24:59;;;;;;;0.47;0.47;;;13.80;99.90;;;;;;6067762;23;20451;-66
2022/11/09 05:27:26;;;;;;;0.70;0.70;;;13.80;99.90;;;;;;6068710;23;20428;-66
2022/11/09 05:29:53;;;;;;;0.40;0.40;;;13.80;99.90;;;;;;6068556;23;20436;-67
2022/11/09 05:32:19;;;;;;;0.50;0.50;;;13.90;99.90;;;;;;6070054;23;20454;-66
2022/11/09 05:34:46;;;;;;;0.60;0.60;;;13.90;99.90;;;;;;6070261;23;20428;-66
2022/11/09 05:37:16;;;;;;;0.80;0.80;;;13.90;99.90;;;;;;6069649;23;20706;-69
2022/11/09 05:39:43;;;;;;;4.53;1.03;;;13.90;99.90;;;;;;6068275;23;20421;-69
2022/11/09 05:42:10;;;;;;;0.80;0.80;;;13.90;99.90;;;;;;6069781;23;20448;-69
2022/11/09 05:44:36;;;;;;;0.33;0.33;;;13.90;99.90;;;;;;6070609;23;20436;-66
2022/11/09 05:47:03;;;;;;;0.77;0.77;;;13.80;99.90;;;;;;6069735;23;20432;-66
2022/11/09 05:49:30;;;;;;;0.70;0.70;;;13.80;99.90;;;;;;6068164;23;20428;-66
2022/11/09 05:51:56;;;;;;;0.70;0.70;;;13.80;99.90;;;;;;6067605;23;20472;-67
2022/11/09 05:54:24;;;;;;;0.80;0.80;;;13.70;99.90;;;;;;6067626;23;20432;-67
2022/11/09 05:56:51;;;;;;;0.93;0.93;;;13.70;99.90;;;;;;6068722;23;20442;-67
2022/11/09 05:59:17;;;;;;;0.50;0.50;;;13.70;99.90;;;;;;6067873;23;20435;-68
2022/11/09 06:01:44;;;;;;;0.50;0.50;;;13.70;99.90;;;;;;6067801;23;20460;-67
2022/11/09 06:04:11;;;;;;;0.77;0.77;;;13.70;99.90;;;;;;6068933;23;20432;-68
2022/11/09 06:06:37;;;;;;;0.73;0.50;;;13.70;99.90;;;;;;6070686;23;20427;-68
2022/11/09 06:09:04;;;;;;;0.50;0.50;;;13.70;99.90;;;;;;6069003;23;20455;-67
2022/11/09 06:11:32;;;;;;;0.63;0.60;;;13.70;99.90;;;;;;6069640;23;20450;-68
2022/11/09 06:13:59;;;;;;;0.90;0.90;;;13.70;99.90;;;;;;6068875;23;20432;-66
2022/11/09 06:16:25;;;;;;;0.43;0.43;;;13.70;99.90;;;;;;6067583;23;20428;-67
2022/11/09 06:18:52;;;;;;;0.53;0.53;;;13.70;99.90;;;;;;6068895;23;20438;-67
2022/11/09 06:21:19;;;;;;;0.73;0.73;;;13.70;99.90;;;;;;6067805;23;20555;-67
2022/11/09 06:23:46;;;;;;;1.13;0.70;;;13.70;99.90;;;;;;6068075;23;20903;-67
2022/11/09 06:26:13;;;;;;;1.03;0.80;;;13.70;99.90;;;;;;6067448;23;20915;-66
2022/11/09 06:28:41;;;;;;;1.80;0.90;;;13.60;99.90;;;;;;6069092;23;20428;-68
2022/11/09 06:31:12;;;;;;;1.67;0.90;;;13.60;99.90;;;;;;6067201;23;20459;-66
2022/11/09 06:33:38;;;;;;;2.27;1.37;;;13.60;99.90;;;;;;6066235;23;20412;-66
2022/11/09 06:36:06;;;;;;;0.83;0.83;;;13.60;99.90;;;;;;6067919;23;20432;-67
2022/11/09 06:38:32;;;;;;;0.70;0.70;;;13.50;99.90;;;;;;6067970;23;20449;-68
2022/11/09 06:41:00;;;;;;;1.70;0.70;;;13.50;99.90;;;;;;6067364;23;20463;-66
2022/11/09 06:43:27;;;;;;;0.50;0.50;;;13.50;99.90;;;;;;6066701;23;20428;-67
2022/11/09 06:45:55;;;;;;;1.07;1.07;;;13.50;99.90;;;;;;6066785;23;20433;-66
2022/11/09 06:48:22;;;;;;;1.13;0.80;;;13.50;99.90;;;;;;6068465;23;20428;-67
2022/11/09 06:50:49;;;;;;;0.67;0.67;;;13.60;99.90;;;;;;6068821;23;20483;-67
2022/11/09 06:53:18;;;;;;;3.60;0.67;;;13.60;99.90;;;;;;6066922;23;20445;-66
2022/11/09 06:55:44;;;;;;;2.30;0.90;;;13.60;99.90;;;;;;6068674;23;20451;-67
2022/11/09 06:58:14;;;;;;;2.73;0.70;;;13.60;99.90;;;;;;6068378;23;20459;-67
2022/11/09 07:00:41;;;;;;;0.50;0.50;;;13.60;99.90;;;;;;6067481;23;20456;-67
2022/11/09 07:03:13;;;;;;;0.57;0.57;;;13.70;99.90;;;;;;6066734;23;20420;-67
2022/11/09 07:05:40;;;;;;;0.50;0.50;;;13.70;99.90;;;;;;6067980;23;20412;-66
2022/11/09 07:08:06;;;;;;;0.63;0.63;;;13.70;99.90;;;;;;6065509;23;20427;-67
2022/11/09 07:10:33;;;;;;;1.33;0.90;;;13.70;99.90;;;;;;6066721;23;20833;-67
2022/11/09 07:13:02;;;;;;;1.20;1.20;;;13.70;99.90;;;;;;6065176;23;20765;-68
2022/11/09 07:15:28;;;;;;;0.50;0.50;;;13.70;99.90;;;;;;6066400;23;20935;-68
2022/11/09 07:17:57;;;;;;;0.47;0.47;;;13.70;99.90;;;;;;6066508;23;20423;-68
2022/11/09 07:20:25;;;;;;;1.90;0.93;;;13.70;99.90;;;;;;6064600;23;20792;-68
2022/11/09 07:22:52;;;;;;;0.57;0.57;;;13.80;99.90;;;;;;6061158;23;21363;-68
2022/11/09 07:25:19;;;;;;;1.20;1.20;;;13.80;99.90;;;;;;6063589;23;20432;-67
2022/11/09 07:27:46;;;;;;;0.50;0.50;;;13.90;99.90;;;;;;6064096;23;20425;-68
2022/11/09 07:30:14;;;;;;;0.60;0.30;;;14.00;99.90;;;;;;6063311;23;20920;-68
2022/11/09 07:32:41;;;;;;;0.77;0.50;;;14.00;99.90;;;;;;6063270;23;20427;-68
2022/11/09 07:35:09;;;;;;;0.73;0.73;;;14.00;99.90;;;;;;6064512;23;20412;-68
2022/11/09 07:37:37;;;;;;;0.93;0.93;;;13.90;99.90;;;;;;6063430;23;20478;-69
2022/11/09 07:40:05;;;;;;;0.60;0.60;;;13.90;99.90;;;;;;6063669;23;20516;-68
2022/11/09 07:42:31;;;;;;;0.63;0.63;;;13.90;99.90;;;;;;6062687;23;20463;-68
2022/11/09 07:44:58;;;;;;;0.57;0.57;;;13.90;99.90;;;;;;6063567;23;20429;-69
2022/11/09 07:47:25;;;;;;;1.80;0.80;;;14.00;99.90;;;;;;6063893;23;20429;-70
2022/11/09 07:49:51;;;;;;;1.33;0.70;;;14.00;99.90;;;;;;6063953;23;20435;-69
2022/11/09 07:52:18;;;;;;;0.97;0.97;;;14.00;99.90;;;;;;6063688;23;20444;-69
2022/11/09 07:54:46;;;;;;;0.50;0.47;;;13.90;99.90;;;;;;6063310;23;20435;-69
2022/11/09 07:57:13;;;;;;;0.53;0.50;;;14.00;99.90;;;;;;6064173;23;20435;-68
2022/11/09 07:59:39;;;;;;;4.73;1.23;;;14.00;99.90;;;;;;6064835;23;20728;-69
2022/11/09 08:02:06;;;;;;;0.67;0.67;;;14.00;99.90;;;;;;6063892;23;20523;-69
2022/11/09 08:04:33;;;;;;;2.20;0.93;;;14.00;99.90;;;;;;6064148;23;20454;-69
2022/11/09 08:06:59;;;;;;;0.80;0.80;;;14.10;99.90;;;;;;6064484;23;20435;-69
2022/11/09 08:09:27;;;;;;;1.37;0.53;;;14.10;99.90;;;;;;6062673;23;20443;-69
2022/11/09 08:11:55;;;;;;;0.60;0.60;;;14.10;99.90;;;;;;6061916;23;20445;-68
2022/11/09 08:14:22;;;;;;;0.60;0.60;;;14.10;99.90;;;;;;6063324;23;20775;-68
2022/11/09 08:16:49;;;;;;;0.77;0.60;;;14.10;99.90;;;;;;6062882;23;20428;-68
2022/11/09 08:19:15;;;;;;;1.30;0.63;;;14.10;99.90;;;;;;6063888;23;20428;-66
2022/11/09 08:21:42;;;;;;;0.60;0.60;;;14.10;99.90;;;;;;6063821;23;20479;-67
2022/11/09 08:24:09;;;;;;;0.70;0.70;;;14.10;99.90;;;;;;6063270;23;20435;-67
2022/11/09 08:26:35;;;;;;;0.30;0.30;;;14.20;99.90;;;;;;6063288;23;20454;-66
2022/11/09 08:29:03;;;;;;;0.67;0.67;;;14.20;99.90;;;;;;6063980;23;20536;-67
2022/11/09 08:31:31;;;;;;;0.80;0.80;;;14.30;99.90;;;;;;6062980;23;20452;-67
2022/11/09 08:33:57;;;;;;;0.83;0.83;;;14.30;99.90;;;;;;6063642;23;20436;-67
2022/11/09 08:36:26;;;;;;;0.53;0.53;;;14.40;99.90;;;;;;6065160;23;20435;-67
2022/11/09 08:38:53;;;;;;;1.27;1.17;;;14.40;99.90;;;;;;6064508;23;20443;-68
2022/11/09 08:41:20;;;;;;;3.97;0.63;;;14.50;99.90;;;;;;6062741;23;20453;-67
2022/11/09 08:43:49;;;;;;;0.57;0.50;;;14.50;99.90;;;;;;6064447;23;20531;-67
2022/11/09 08:46:18;;;;;;;0.40;0.40;;;14.50;99.90;;;;;;6065029;23;20426;-68
2022/11/09 08:48:44;;;;;;;0.50;0.50;;;14.50;99.90;;;;;;6064138;23;20516;-68
2022/11/09 08:51:11;;;;;;;0.43;0.43;;;14.50;99.90;;;;;;6065020;23;20962;-68
2022/11/09 08:53:38;;;;;;;1.00;0.90;;;14.50;99.90;;;;;;6063342;23;20433;-69
2022/11/09 08:56:06;;;;;;;0.43;0.43;;;14.60;99.90;;;;;;6063078;23;20436;-68
2022/11/09 08:58:32;;;;;;;0.87;0.87;;;14.60;99.90;;;;;;6064227;23;20425;-67
2022/11/09 09:00:59;;;;;;;2.30;0.40;;;14.60;99.90;;;;;;6063979;23;20457;-67
2022/11/09 09:03:27;;;;;;;0.50;0.50;;;14.60;99.90;;;;;;6064787;23;20417;-68
2022/11/09 09:05:54;;;;;;;5.90;1.00;;;14.60;99.90;;;;;;6063839;23;20432;-66
2022/11/09 09:08:21;;;;;;;1.90;0.60;;;14.60;99.90;;;;;;6063951;23;20436;-68
2022/11/09 09:10:48;;;;;;;0.63;0.63;;;14.50;99.90;;;;;;6064231;23;20456;-67
2022/11/09 09:13:15;;;;;;;0.60;0.60;;;14.50;99.90;;;;;;6060527;23;20428;-66
2022/11/09 09:15:41;;;;;;;0.83;0.70;;;14.40;99.90;;;;;;6063804;23;20763;-69
2022/11/09 09:18:08;;;;;;;0.53;0.53;;;14.20;99.90;;;;;;6064870;23;20437;-68
2022/11/09 09:20:36;;;;;;;1.80;0.70;;;14.00;99.90;;;;;;6065664;23;20455;-68
2022/11/09 09:23:03;;;;;;;1.13;0.60;;;13.90;99.90;;;;;;6064095;23;20449;-69
2022/11/09 09:25:29;;;;;;;0.77;0.67;;;13.90;99.90;;;;;;6065982;23;20433;-68
2022/11/09 09:27:56;;;;;;;0.43;0.43;;;13.90;99.90;;;;;;6063993;23;20435;-69
2022/11/09 09:30:23;;;;;;;1.03;0.67;;;14.00;99.90;;;;;;6065366;23;20534;-68
2022/11/09 09:32:49;;;;;;;0.70;0.70;;;14.00;99.90;;;;;;6063739;23;20437;-68
2022/11/09 09:35:16;;;;;;;0.50;0.50;;;14.00;99.90;;;;;;6064238;23;20431;-68
2022/11/09 09:37:44;;;;;;;0.63;0.63;;;14.00;99.90;;;;;;6062300;23;20439;-68
2022/11/09 09:40:23;;;;;;;2.20;0.97;;;14.00;99.90;;;;;;6063422;23;20431;-69
2022/11/09 09:42:51;;;;;;;0.63;0.63;;;14.00;99.90;;;;;;6061878;23;20788;-68
2022/11/09 09:45:21;;;;;;;2.47;0.63;;;14.00;99.90;;;;;;6063933;23;20428;-67
2022/11/09 09:47:53;;;;;;;0.50;0.50;;;14.00;99.90;;;;;;6065011;23;20428;-68
2022/11/09 09:50:23;;;;;;;0.73;0.73;;;14.00;99.90;;;;;;6065386;23;20773;-67
2022/11/09 09:52:56;;;;;;;0.80;0.80;;;14.10;99.90;;;;;;6063476;23;20768;-68
2022/11/09 09:55:29;;;;;;;0.63;0.63;;;14.10;99.90;;;;;;6066562;23;20436;-69
2022/11/09 09:58:04;;;;;;;2.63;0.60;;;14.10;99.90;;;;;;6065698;23;20875;-68
2022/11/09 10:00:34;;;;;;;0.87;0.87;;;14.10;99.90;;;;;;6066137;23;20899;-69
2022/11/09 10:03:01;;;;;;;0.77;0.77;;;14.20;99.90;;;;;;6063875;23;20440;-66
2022/11/09 10:05:43;;;;;;;3.03;0.83;;;14.30;99.90;;;;;;6074151;23;20443;-68
2022/11/09 10:08:18;;;;;;;0.70;0.70;;;14.30;99.90;;;;;;6064566;23;20420;-67
2022/11/09 10:10:55;;;;;;;0.60;0.60;;;14.30;99.90;;;;;;6064254;23;20483;-67
2022/11/09 10:13:42;;;;;;;5.43;0.80;;;14.40;99.90;;;;;;6064080;23;20764;-67
2022/11/09 10:16:17;;;;;;;0.60;0.60;;;14.50;99.90;;;;;;6064741;23;20423;-67
2022/11/09 10:19:01;;;;;;;0.30;0.30;;;14.60;99.90;;;;;;6064987;23;20411;-67
2022/11/09 10:21:37;;;;;;;5.10;1.03;;;14.70;99.90;;;;;;6064184;23;20793;-67
2022/11/09 10:24:16;;;;;;;0.73;0.73;;;14.80;99.90;;;;;;6064273;23;20412;-66
2022/11/09 10:26:46;;;;;;;0.50;0.50;;;14.70;99.90;;;;;;6063645;23;20423;-67
2022/11/09 10:29:22;;;;;;;0.93;0.93;;;14.70;99.90;;;;;;6064251;23;20417;-66
2022/11/09 10:31:51;;;;;;;0.70;0.70;;;14.60;99.90;;;;;;6063384;23;20444;-66
2022/11/09 10:34:20;;;;;;;1.30;1.30;;;14.60;99.90;;;;;;6063687;23;20436;-67
2022/11/09 10:36:54;;;;;;;0.60;0.60;;;14.60;99.90;;;;;;6063580;23;20436;-67
2022/11/09 10:39:25;;;;;;;5.50;0.40;;;14.70;99.90;;;;;;6064151;23;20416;-67
2022/11/09 10:41:52;;;;;;;0.97;0.97;;;14.60;99.90;;;;;;6063846;23;20471;-66
2022/11/09 10:44:19;;;;;;;2.10;0.57;;;14.60;99.90;;;;;;6064441;23;20428;-67
2022/11/09 10:47:02;;;;;;;0.50;0.50;;;14.60;99.90;;;;;;6064482;23;20429;-68
2022/11/09 10:49:29;;;;;;;0.40;0.40;;;14.60;99.90;;;;;;6063365;23;20413;-68
2022/11/09 10:51:56;;;;;;;1.80;0.80;;;14.70;99.90;;;;;;6064121;23;20460;-67
2022/11/09 10:54:26;;;;;;;0.87;0.87;;;14.80;99.90;;;;;;6064259;23;20436;-68
2022/11/09 10:57:11;;;;;;;1.70;0.60;;;14.80;99.90;;;;;;6066392;23;20420;-68
2022/11/09 10:59:45;;;;;;;0.40;0.40;;;14.90;99.90;;;;;;6063696;23;20493;-68
2022/11/09 11:02:43;;;;;;;0.70;0.70;;;15.00;99.90;;;;;;6065338;23;20463;-68
2022/11/09 11:05:29;;;;;;;0.90;0.90;;;15.10;99.90;;;;;;6065229;23;20413;-68
2022/11/09 11:07:57;;;;;;;0.47;0.47;;;15.20;99.90;;;;;;6064308;23;20858;-68
2022/11/09 11:10:25;;;;;;;0.53;0.53;;;15.20;99.90;;;;;;6064303;23;20943;-67
2022/11/09 11:13:17;;;;;;;0.67;0.67;;;15.20;99.90;;;;;;6062317;23;20438;-68
2022/11/09 11:15:45;;;;;;;1.07;0.97;;;15.30;99.90;;;;;;6063529;23;20497;-68
2022/11/09 11:18:17;;;;;;;0.90;0.70;;;15.30;99.90;;;;;;6063653;23;20434;-68
2022/11/09 11:20:45;;;;;;;1.20;1.20;;;15.40;99.90;;;;;;6065177;23;20446;-67
2022/11/09 11:23:14;;;;;;;3.93;1.40;;;15.40;99.90;;;;;;6063121;23;20453;-68
2022/11/09 11:26:12;;;;;;;3.07;0.50;;;15.50;99.90;;;;;;6065316;23;20429;-68
2022/11/09 11:28:43;;;;;;;0.70;0.70;;;15.60;99.90;;;;;;6062881;23;20425;-68
2022/11/09 11:31:13;;;;;;;1.10;1.07;;;15.60;99.90;;;;;;6064778;23;20453;-69
2022/11/09 11:33:40;;;;;;;0.77;0.77;;;15.60;99.90;;;;;;6065150;23;20409;-69
2022/11/09 11:36:17;;;;;;;1.50;1.40;;;15.70;99.90;;;;;;6064867;23;20913;-69
2022/11/09 11:38:51;;;;;;;1.53;1.13;;;15.70;99.90;;;;;;6064900;23;20423;-68
2022/11/09 11:41:50;;;;;;;1.17;1.00;;;15.60;99.90;;;;;;6063953;23;20543;-68
2022/11/09 11:44:30;;;;;;;1.00;1.00;;;15.60;99.90;;;;;;6014391;23;20883;-67
2022/11/09 11:47:02;;;;;;;0.70;0.70;;;15.50;99.90;;;;;;6064813;23;20414;-67
2022/11/09 11:49:55;;;;;;;3.93;1.20;;;15.50;99.90;;;;;;6064135;23;20410;-67
2022/11/09 11:52:32;;;;;;;0.60;0.60;;;15.50;99.90;;;;;;6063662;23;20449;-67
2022/11/09 11:55:14;;;;;;;1.07;1.00;;;15.50;99.90;;;;;;6064739;23;20409;-67
2022/11/09 11:57:53;;;;;;;1.10;1.00;;;15.60;99.90;;;;;;6062964;23;20414;-68
2022/11/09 12:00:20;;;;;;;1.40;0.73;;;15.70;99.90;;;;;;6063641;23;20414;-67
2022/11/09 12:03:10;;;;;;;0.70;0.70;;;15.80;99.90;;;;;;6064059;23;20440;-68
2022/11/09 12:05:58;;;;;;;1.40;0.50;;;15.90;99.90;;;;;;6064894;23;20489;-67
2022/11/09 12:08:32;;;;;;;2.93;0.67;;;16.00;99.90;;;;;;6065165;23;20742;-67
2022/11/09 12:11:07;;;;;;;0.90;0.90;;;16.00;99.90;;;;;;6065727;23;20452;-67
2022/11/09 12:13:50;;;;;;;2.20;0.80;;;16.00;99.90;;;;;;6064562;23;20416;-67
2022/11/09 12:16:23;;;;;;;1.00;0.97;;;16.10;99.90;;;;;;6064616;23;20418;-67
2022/11/09 12:19:00;;;;;;;1.43;0.87;;;16.10;99.90;;;;;;6066356;23;20751;-67
2022/11/09 12:21:32;;;;;;;0.40;0.40;;;16.10;99.90;;;;;;6065955;23;20455;-67
2022/11/09 12:24:10;;;;;;;1.60;0.83;;;16.00;99.90;;;;;;6065517;23;20714;-68
2022/11/09 12:26:52;;;;;;;2.00;0.83;;;15.90;99.90;;;;;;6064976;23;20929;-67
2022/11/09 12:29:22;;;;;;;0.70;0.70;;;15.90;99.90;;;;;;6075226;23;20445;-68
2022/11/09 12:32:00;;;;;;;1.23;1.23;;;15.80;99.90;;;;;;6066970;23;20532;-67
2022/11/09 12:34:31;;;;;;;0.60;0.60;;;15.80;99.90;;;;;;6066240;23;20405;-68
2022/11/09 12:37:02;;;;;;;0.70;0.70;;;15.80;99.90;;;;;;6066472;23;20409;-68
2022/11/09 12:39:35;;;;;;;1.80;1.00;;;15.80;99.90;;;;;;6066516;23;20917;-68
2022/11/09 12:42:06;;;;;;;0.97;0.90;;;15.90;99.90;;;;;;6067171;23;20971;-68
2022/11/09 12:44:39;;;;;;;0.50;0.50;;;15.90;99.90;;;;;;6066210;23;20417;-68
2022/11/09 12:47:14;;;;;;;0.80;0.80;;;15.90;99.90;;;;;;6067792;23;20416;-68
2022/11/09 12:49:42;;;;;;;0.70;0.70;;;15.90;99.90;;;;;;6067458;23;20409;-69
2022/11/09 12:52:18;;;;;;;0.87;0.60;;;15.80;99.90;;;;;;6067601;23;21043;-68
2022/11/09 12:54:47;;;;;;;2.27;2.13;;;15.80;99.90;;;;;;6066032;23;20798;-68
2022/11/09 12:57:16;;;;;;;0.93;0.93;;;15.80;99.90;;;;;;6065669;23;20426;-68
2022/11/09 12:59:50;;;;;;;0.90;0.90;;;15.70;99.90;;;;;;6066292;23;20425;-65
2022/11/09 13:02:24;;;;;;;0.70;0.70;;;15.80;99.90;;;;;;6066366;23;20710;-68
2022/11/09 13:04:59;;;;;;;1.23;1.23;;;15.80;99.90;;;;;;6066044;23;20473;-68
2022/11/09 13:07:48;;;;;;;0.80;0.80;;;15.90;99.90;;;;;;6066427;23;20425;-68
2022/11/09 13:10:26;;;;;;;0.70;0.70;;;16.00;99.90;;;;;;6066484;23;20422;-67
2022/11/09 13:13:03;;;;;;;1.23;0.53;;;16.10;99.90;;;;;;6063615;23;20750;-69
2022/11/09 13:15:33;;;;;;;2.97;0.87;;;16.10;99.90;;;;;;6065171;23;20418;-66
2022/11/09 13:18:03;;;;;;;0.77;0.77;;;16.10;99.90;;;;;;6065197;23;20415;-66
2022/11/09 13:20:51;;;;;;;0.70;0.70;;;16.10;99.90;;;;;;6065802;23;20466;-66
2022/11/09 13:23:30;;;;;;;1.50;0.83;;;16.10;99.90;;;;;;6055688;23;20448;-66
2022/11/09 13:25:57;;;;;;;1.90;1.10;;;16.10;99.90;;;;;;6065305;23;20411;-66
2022/11/09 13:28:44;;;;;;;3.80;0.70;;;16.00;99.90;;;;;;6065348;23;20460;-67
2022/11/09 13:31:12;;;;;;;0.90;0.90;;;15.90;99.90;;;;;;6066172;23;20446;-66
2022/11/09 13:33:39;;;;;;;4.30;1.63;;;15.90;99.90;;;;;;6065263;23;20430;-66
2022/11/09 13:36:18;;;;;;;2.13;0.97;;;15.90;99.90;;;;;;6065300;23;20429;-66
2022/11/09 13:39:07;;;;;;;0.50;0.50;;;15.80;99.90;;;;;;6064935;23;20748;-67
2022/11/09 13:41:42;;;;;;;2.10;1.20;;;15.70;99.90;;;;;;6064039;23;20513;-67
2022/11/09 13:44:18;;;;;;;1.47;1.47;;;15.70;99.90;;;;;;6064190;23;20445;-67
2022/11/09 13:46:48;;;;;;;1.33;1.20;;;15.70;99.90;;;;;;6064676;23;20413;-67
2022/11/09 13:49:39;;;;;;;1.60;0.80;;;15.60;99.90;;;;;;6064278;23;20532;-66
2022/11/09 13:52:27;;;;;;;1.13;1.10;;;15.60;99.90;;;;;;6064507;23;20752;-67
2022/11/09 13:54:54;;;;;;;0.70;0.70;;;15.60;99.90;;;;;;6062188;23;20458;-67
2022/11/09 13:57:23;;;;;;;1.00;1.00;;;15.60;99.90;;;;;;6063386;23;20436;-67
2022/11/09 13:59:50;;;;;;;1.23;1.23;;;15.50;99.90;;;;;;6064498;23;20428;-67
2022/11/09 14:02:21;;;;;;;1.27;0.93;;;15.50;99.90;;;;;;6064116;23;20463;-67
2022/11/09 14:04:48;;;;;;;1.33;1.17;;;15.40;99.90;;;;;;6064183;23;20406;-67
2022/11/09 14:07:20;;;;;;;1.37;1.37;;;15.40;99.90;;;;;;6064813;23;20431;-67
2022/11/09 14:09:54;;;;;;;1.27;1.27;;;15.30;99.90;;;;;;6063990;23;20414;-67
2022/11/09 14:12:40;;;;;;;1.03;1.03;;;15.20;99.90;;;;;;6064533;23;20452;-67
2022/11/09 14:15:21;;;;;;;1.10;1.10;;;15.20;99.90;;;;;;6064636;23;20437;-67
2022/11/09 14:18:01;;;;;;;1.03;1.03;;;15.10;99.90;;;;;;6063447;23;20409;-67
2022/11/09 14:20:37;;;;;;;1.33;1.33;;;15.10;99.90;;;;;;6064595;23;20410;-67
2022/11/09 14:23:03;;;;;;;1.47;1.23;;;15.00;99.90;;;;;;6063987;23;20444;-68
2022/11/09 14:25:34;;;;;;;0.90;0.90;;;15.00;99.90;;;;;;6064973;23;20441;-67
2022/11/09 14:28:01;;;;;;;3.60;1.00;;;15.00;99.90;;;;;;6064373;23;20413;-67
2022/11/09 14:30:29;;;;;;;0.93;0.93;;;14.90;99.90;;;;;;6064150;23;20765;-67
2022/11/09 14:32:58;;;;;;;1.00;1.00;;;14.90;99.90;;;;;;6064029;23;20429;-67
2022/11/09 14:35:29;;;;;;;0.87;0.83;;;14.90;99.90;;;;;;6064399;23;20429;-67
2022/11/09 14:37:57;;;;;;;4.60;1.03;;;14.90;99.90;;;;;;6063854;23;21190;-67
2022/11/09 14:40:26;;;;;;;0.90;0.90;;;14.90;99.90;;;;;;6063918;23;20429;-67
2022/11/09 14:42:55;;;;;;;1.53;0.83;;;14.80;99.90;;;;;;6063845;23;20452;-67
2022/11/09 14:45:22;;;;;;;1.30;1.20;;;14.80;99.90;;;;;;6064227;23;20426;-68
2022/11/09 14:47:52;;;;;;;2.30;1.07;;;14.70;99.90;;;;;;6063977;23;20429;-67
2022/11/09 14:50:23;;;;;;;1.10;1.10;;;14.70;99.90;;;;;;6064007;23;20740;-68
2022/11/09 14:52:52;;;;;;;0.60;0.60;;;14.70;99.90;;;;;;6063275;23;20783;-67
2022/11/09 14:55:21;;;;;;;0.73;0.73;;;14.70;99.90;;;;;;6063721;23;20851;-67
2022/11/09 14:57:49;;;;;;;2.73;1.13;;;14.70;99.90;;;;;;6063850;23;20915;-67
2022/11/09 15:00:30;;;;;;;0.87;0.87;;;14.70;99.90;;;;;;6062909;23;20435;-67
2022/11/09 15:02:57;;;;;;;1.70;1.40;;;14.60;99.90;;;;;;6063420;23;20435;-67
2022/11/09 15:05:38;;;;;;;0.70;0.70;;;14.60;99.90;;;;;;6063781;23;20429;-67
2022/11/09 15:08:13;;;;;;;0.80;0.80;;;14.40;99.90;;;;;;6063483;23;20459;-67
2022/11/09 15:10:40;;;;;;;3.60;1.27;;;14.40;99.90;;;;;;6063630;23;21147;-67
2022/11/09 15:13:07;;;;;;;0.97;0.97;;;14.30;99.90;;;;;;6062917;23;20432;-67
2022/11/09 15:15:37;;;;;;;0.77;0.77;;;14.30;99.90;;;;;;6063366;23;20433;-67
2022/11/09 15:18:04;;;;;;;1.13;1.13;;;14.40;99.90;;;;;;6062817;23;20456;-67
2022/11/09 15:20:33;;;;;;;1.60;1.60;;;14.40;99.90;;;;;;6064458;23;20757;-67
2022/11/09 15:23:03;;;;;;;1.13;1.13;;;14.40;99.90;;;;;;6062222;23;20448;-68
2022/11/09 15:25:34;;;;;;;2.83;1.60;;;14.50;99.90;;;;;;6063393;23;20529;-68
2022/11/09 15:28:22;;;;;;;1.10;1.10;;;14.40;99.90;;;;;;6063259;23;20783;-68
2022/11/09 15:31:11;;;;;;;4.53;1.10;;;14.40;99.90;;;;;;6064308;23;20538;-67
2022/11/09 15:33:47;;;;;;;1.13;1.13;;;14.40;99.90;;;;;;6062443;23;20487;-67
2022/11/09 15:36:29;;;;;;;0.77;0.77;;;14.30;99.90;;;;;;6064026;23;20469;-68
2022/11/09 15:39:01;;;;;;;0.90;0.90;;;14.20;99.90;;;;;;6063226;23;20440;-68
2022/11/09 15:41:28;;;;;;;1.03;1.00;;;14.20;99.90;;;;;;6063052;23;20451;-67
2022/11/09 15:43:55;;;;;;;2.07;1.00;;;14.10;99.90;;;;;;6063087;23;20510;-67
2022/11/09 15:46:24;;;;;;;6.07;1.33;;;14.10;99.90;;;;;;6063139;23;20429;-67
2022/11/09 15:48:51;;;;;;;4.23;0.80;;;14.00;99.90;;;;;;6063456;23;20560;-67
2022/11/09 15:51:19;;;;;;;1.00;1.00;;;14.00;99.90;;;;;;6063344;23;20456;-67
2022/11/09 15:53:45;;;;;;;1.17;1.03;;;14.00;99.90;;;;;;6063027;23;20456;-67
2022/11/09 15:56:16;;;;;;;2.57;0.90;;;14.00;99.90;;;;;;6063004;23;20434;-67
2022/11/09 15:58:45;;;;;;;0.80;0.80;;;13.90;99.90;;;;;;6063054;23;20419;-67
2022/11/09 16:01:12;;;;;;;0.60;0.60;;;13.80;99.90;;;;;;6062780;23;20468;-67
2022/11/09 16:03:39;;;;;;;1.23;1.23;;;13.80;99.90;;;;;;6061280;23;20452;-67
2022/11/09 16:06:09;;;;;;;0.80;0.77;;;13.70;99.90;;;;;;6062939;23;20510;-68
2022/11/09 16:08:35;;;;;;;0.73;0.73;;;13.70;99.90;;;;;;6063362;23;20428;-67
2022/11/09 16:11:04;;;;;;;1.47;1.37;;;13.60;99.90;;;;;;6063805;23;20753;-67
2022/11/09 16:13:32;;;;;;;0.60;0.60;;;13.60;99.90;;;;;;6063983;23;20911;-68
2022/11/09 16:16:03;;;;;;;0.77;0.70;;;13.50;99.90;;;;;;6064987;23;20434;-69
2022/11/09 16:18:29;;;;;;;1.03;1.03;;;13.50;99.90;;;;;;6063826;23;20539;-68
2022/11/09 16:20:57;;;;;;;0.90;0.90;;;13.50;99.90;;;;;;6064045;23;20454;-68
2022/11/09 16:23:24;;;;;;;6.27;2.07;;;13.40;99.90;;;;;;6062981;23;20447;-69
2022/11/09 16:25:50;;;;;;;1.00;0.80;;;13.40;99.90;;;;;;6064473;23;20427;-69
2022/11/09 16:28:18;;;;;;;0.77;0.77;;;13.40;99.90;;;;;;6063432;23;20432;-68
2022/11/09 16:30:46;;;;;;;0.90;0.90;;;13.30;99.90;;;;;;6064552;23;20458;-68
2022/11/09 16:33:12;;;;;;;0.80;0.80;;;13.30;99.90;;;;;;6062633;23;20432;-68
2022/11/09 16:35:39;;;;;;;2.70;1.10;;;13.30;99.90;;;;;;6062894;23;20507;-68
2022/11/09 16:38:06;;;;;;;2.50;1.37;;;13.20;99.90;;;;;;6063336;23;20781;-68
2022/11/09 16:40:33;;;;;;;0.80;0.80;;;13.20;99.90;;;;;;6062040;23;20949;-69
2022/11/09 16:43:00;;;;;;;0.90;0.90;;;13.20;99.90;;;;;;6061831;23;20430;-68
2022/11/09 16:45:27;;;;;;;2.93;1.63;;;13.10;99.90;;;;;;6063665;23;20431;-67
2022/11/09 16:47:56;;;;;;;1.00;1.00;;;13.10;99.90;;;;;;6062690;23;20427;-67
2022/11/09 16:50:23;;;;;;;1.63;0.97;;;13.10;99.90;;;;;;6061184;23;20423;-68
2022/11/09 16:52:50;;;;;;;0.70;0.70;;;13.10;99.90;;;;;;6060557;23;20453;-67
2022/11/09 16:55:17;;;;;;;0.87;0.87;;;13.10;99.90;;;;;;6061032;23;20439;-66
2022/11/09 16:57:45;;;;;;;1.07;1.07;;;13.20;99.90;;;;;;6061003;23;20919;-67
2022/11/09 17:00:14;;;;;;;2.30;1.73;;;13.30;99.90;;;;;;6063373;23;20475;-67
2022/11/09 17:02:41;;;;;;;2.00;1.90;;;13.30;99.90;;;;;;6061652;23;20441;-67
2022/11/09 17:05:09;;;;;;;0.57;0.57;;;13.40;99.90;;;;;;6062623;23;20448;-67
2022/11/09 17:07:39;;;;;;;4.77;1.23;;;13.50;99.90;;;;;;6063954;23;20434;-67
2022/11/09 17:10:06;;;;;;;5.20;1.50;;;13.50;99.90;;;;;;6063357;23;20435;-67
2022/11/09 17:12:33;;;;;;;2.20;0.80;;;13.50;99.90;;;;;;6062102;23;20958;-67
2022/11/09 17:15:00;;;;;;;0.70;0.70;;;13.40;99.90;;;;;;6063616;23;20423;-68
2022/11/09 17:17:26;;;;;;;0.40;0.40;;;13.40;99.90;;;;;;6062877;23;20432;-67
2022/11/09 17:19:53;;;;;;;1.03;1.03;;;13.40;99.90;;;;;;6063731;23;20432;-67
2022/11/09 17:22:21;;;;;;;0.87;0.87;;;13.50;99.90;;;;;;6064066;23;20459;-67
2022/11/09 17:24:48;;;;;;;0.80;0.80;;;13.50;99.90;;;;;;6061510;23;20452;-67
2022/11/09 17:27:14;;;;;;;4.33;0.70;;;13.50;99.90;;;;;;6063201;23;20436;-66
2022/11/09 17:29:41;;;;;;;1.03;1.03;;;13.50;99.90;;;;;;6063605;23;20523;-69
2022/11/09 17:32:09;;;;;;;1.40;1.40;;;13.50;99.90;;;;;;6063317;23;20456;-66
2022/11/09 17:34:36;;;;;;;1.10;1.10;;;13.50;99.90;;;;;;6062058;23;20523;-66
2022/11/09 17:37:03;;;;;;;0.90;0.90;;;13.50;99.90;;;;;;6064259;23;20534;-68
2022/11/09 17:39:31;;;;;;;0.60;0.60;;;13.50;99.90;;;;;;6063284;23;20963;-66
2022/11/09 17:41:57;;;;;;;1.33;1.20;;;13.40;99.90;;;;;;6062621;23;20470;-67
2022/11/09 17:44:24;;;;;;;0.67;0.67;;;13.40;99.90;;;;;;6063142;23;20452;-68
2022/11/09 17:46:51;;;;;;;1.03;0.83;;;13.40;99.90;;;;;;6063501;23;20440;-68
2022/11/09 17:49:18;;;;;;;3.30;0.90;;;13.30;99.90;;;;;;6063645;23;20726;-67
2022/11/09 17:51:44;;;;;;;5.10;0.77;;;13.30;99.90;;;;;;6065314;23;20585;-67
2022/11/09 17:54:13;;;;;;;0.70;0.70;;;13.30;99.90;;;;;;6072027;23;20900;-67
2022/11/09 17:56:41;;;;;;;0.83;0.70;;;13.30;99.90;;;;;;6061980;23;20483;-66
2022/11/09 17:59:08;;;;;;;0.80;0.80;;;13.30;99.90;;;;;;6062383;23;20743;-67
2022/11/09 18:01:37;;;;;;;1.20;0.90;;;13.30;99.90;;;;;;6061306;23;20459;-67
2022/11/09 18:04:05;;;;;;;1.60;0.93;;;13.20;99.90;;;;;;6062007;23;20499;-67
2022/11/09 18:06:32;;;;;;;1.90;1.80;;;13.20;99.90;;;;;;6063129;23;20942;-67
2022/11/09 18:08:58;;;;;;;1.30;1.20;;;13.20;99.90;;;;;;6061659;23;20439;-67